Time;durP1;ratioP1;P1;durP2;ratioP2;P2;SDS_P1;SDS_P2;PMS_P1;PMS_P2;Temp;Humidity;BMP_temperature;BMP_pressure;BME280_temperature;BME280_humidity;BME280_pressure;Samples;Min_cycle;Max_cycle;Signal;HPM_P1;HPM_P2
2023/01/24 07:52:41;;;;;;;6.43;3.05;;;;;;;;;;5080792;28;20463;-65
2023/01/24 07:55:08;;;;;;;7.40;3.63;;;;;;;;;;5071779;28;20062;-66
2023/01/24 07:57:34;;;;;;;7.63;3.95;;;;;;;;;;5075255;28;20032;-69
2023/01/24 08:00:00;;;;;;;11.35;4.55;;;;;;;;;;5068206;28;20372;-65
2023/01/24 08:02:26;;;;;;;5.60;2.60;;;;;;;;;;5067882;28;20028;-66
2023/01/24 08:04:52;;;;;;;5.88;2.92;;;;;;;;;;5068510;28;20398;-69
2023/01/24 08:07:18;;;;;;;5.38;2.92;;;;;;;;;;5067923;28;20071;-65
2023/01/24 08:09:45;;;;;;;8.50;4.47;;;;;;;;;;5069668;28;20028;-67
2023/01/24 08:12:11;;;;;;;8.70;4.22;;;;;;;;;;5068965;28;20499;-64
2023/01/24 08:14:37;;;;;;;7.13;3.80;;;;;;;;;;5068662;28;20058;-67
2023/01/24 08:17:03;;;;;;;9.45;4.93;;;;;;;;;;5083117;28;20578;-66
2023/01/24 08:19:29;;;;;;;9.82;4.43;;;;;;;;;;5070344;28;20037;-68
2023/01/24 08:21:55;;;;;;;27.15;10.10;;;;;;;;;;5081019;28;20055;-67
2023/01/24 08:24:22;;;;;;;9.80;4.50;;;;;;;;;;5068738;28;20074;-67
2023/01/24 08:26:48;;;;;;;6.90;3.50;;;;;;;;;;5068871;28;20074;-67
2023/01/24 08:29:15;;;;;;;14.25;5.63;;;;;;;;;;5050479;28;20044;-66
2023/01/24 08:31:41;;;;;;;8.57;3.60;;;;;;;;;;5065766;28;20064;-70
2023/01/24 08:34:08;;;;;;;8.05;3.63;;;;;;;;;;5066396;28;20021;-70
2023/01/24 08:36:34;;;;;;;11.30;4.75;;;;;;;;;;5078650;28;20043;-65
2023/01/24 08:39:00;;;;;;;6.80;3.17;;;;;;;;;;5071909;28;20021;-65
2023/01/24 08:41:26;;;;;;;5.65;2.92;;;;;;;;;;5083651;28;20024;-70
2023/01/24 08:43:52;;;;;;;10.13;3.95;;;;;;;;;;5073030;28;20031;-66
2023/01/24 08:46:18;;;;;;;8.25;3.88;;;;;;;;;;5077757;28;20044;-65
2023/01/24 08:49:00;;;;;;;7.13;3.33;;;;;;;;;;5080441;28;20032;-66
2023/01/24 08:51:26;;;;;;;6.22;2.97;;;;;;;;;;5069647;28;20566;-66
2023/01/24 08:53:52;;;;;;;7.47;3.22;;;;;;;;;;5081276;28;20013;-68
2023/01/24 08:56:18;;;;;;;6.80;4.15;;;;;;;;;;5076059;28;20024;-68
2023/01/24 08:58:44;;;;;;;6.97;3.20;;;;;;;;;;5073792;28;20021;-68
2023/01/24 09:01:10;;;;;;;6.85;3.38;;;;;;;;;;5081728;28;20031;-69
2023/01/24 09:03:36;;;;;;;8.13;4.20;;;;;;;;;;5069190;28;20029;-68
2023/01/24 09:06:02;;;;;;;8.32;4.50;;;;;;;;;;5042272;28;20022;-67
2023/01/24 09:08:28;;;;;;;10.23;4.85;;;;;;;;;;5042988;28;20021;-67
2023/01/24 09:10:57;;;;;;;7.05;3.17;;;;;;;;;;5044232;28;20030;-65
2023/01/24 09:13:23;;;;;;;6.63;3.03;;;;;;;;;;5043530;28;20021;-66
2023/01/24 09:15:49;;;;;;;8.50;4.30;;;;;;;;;;5043069;28;20103;-67
2023/01/24 09:18:16;;;;;;;9.07;4.30;;;;;;;;;;5043820;28;20056;-69
2023/01/24 09:20:42;;;;;;;8.48;4.50;;;;;;;;;;5042121;28;20035;-68
2023/01/24 09:23:14;;;;;;;7.85;4.32;;;;;;;;;;5051180;28;20025;-64
2023/01/24 09:25:41;;;;;;;12.48;5.13;;;;;;;;;;5043842;28;20033;-66
2023/01/24 09:28:07;;;;;;;7.63;3.38;;;;;;;;;;5043963;28;20033;-68
2023/01/24 09:30:34;;;;;;;8.35;3.17;;;;;;;;;;5046242;28;20033;-66
2023/01/24 09:33:04;;;;;;;7.43;3.13;;;;;;;;;;5042898;28;20029;-65
2023/01/24 09:35:30;;;;;;;6.85;3.42;;;;;;;;;;5048794;28;20051;-69
2023/01/24 09:37:56;;;;;;;7.88;3.90;;;;;;;;;;5042995;28;20385;-65
2023/01/24 09:40:31;;;;;;;7.53;2.92;;;;;;;;;;5062442;28;20486;-64
2023/01/24 09:43:02;;;;;;;8.02;3.88;;;;;;;;;;5054671;28;20033;-65
2023/01/24 09:45:31;;;;;;;6.28;3.58;;;;;;;;;;5057191;28;20036;-69
2023/01/24 09:47:59;;;;;;;5.85;2.70;;;;;;;;;;5049091;28;20036;-66
2023/01/24 09:50:33;;;;;;;6.78;3.28;;;;;;;;;;5052137;28;20056;-69
2023/01/24 09:52:59;;;;;;;5.25;2.70;;;;;;;;;;5052976;28;20489;-66
2023/01/24 09:55:31;;;;;;;6.78;3.55;;;;;;;;;;5052887;28;20354;-68
2023/01/24 09:58:18;;;;;;;10.02;3.25;;;;;;;;;;5051735;28;20100;-66
2023/01/24 10:00:45;;;;;;;8.70;4.00;;;;;;;;;;5043656;28;20112;-66
2023/01/24 10:03:29;;;;;;;5.28;3.03;;;;;;;;;;5043055;28;20083;-64
2023/01/24 10:05:56;;;;;;;7.78;3.25;;;;;;;;;;5045914;28;20484;-65
2023/01/24 10:08:38;;;;;;;6.38;3.08;;;;;;;;;;5045384;28;20029;-64
2023/01/24 10:11:19;;;;;;;5.83;2.33;;;;;;;;;;5045253;28;20029;-65
2023/01/24 10:13:50;;;;;;;10.35;3.40;;;;;;;;;;5044734;28;20017;-65
2023/01/24 10:16:35;;;;;;;5.63;2.92;;;;;;;;;;5039477;28;20492;-66
2023/01/24 10:19:11;;;;;;;7.90;3.72;;;;;;;;;;5037627;28;20064;-65
2023/01/24 10:21:55;;;;;;;9.65;4.20;;;;;;;;;;5032313;28;20095;-68
2023/01/24 10:24:23;;;;;;;7.20;3.67;;;;;;;;;;5046416;28;20468;-66
2023/01/24 10:26:50;;;;;;;8.15;3.60;;;;;;;;;;5042990;28;20022;-65
2023/01/24 10:29:19;;;;;;;8.98;4.10;;;;;;;;;;5037235;28;20047;-64
2023/01/24 10:31:57;;;;;;;10.25;4.88;;;;;;;;;;5040292;28;20080;-70
2023/01/24 10:34:32;;;;;;;9.82;3.95;;;;;;;;;;5040847;28;20029;-65
2023/01/24 10:36:58;;;;;;;11.95;4.95;;;;;;;;;;5040465;28;20376;-70
2023/01/24 10:39:27;;;;;;;12.20;5.25;;;;;;;;;;5039801;28;20020;-68
2023/01/24 10:41:53;;;;;;;12.73;5.40;;;;;;;;;;5041565;28;20025;-65
2023/01/24 10:44:29;;;;;;;13.25;5.00;;;;;;;;;;5040287;28;20109;-69
2023/01/24 10:47:13;;;;;;;12.73;5.47;;;;;;;;;;5039864;28;20388;-65
2023/01/24 10:49:41;;;;;;;11.90;5.22;;;;;;;;;;5039939;28;20029;-75
2023/01/24 10:52:09;;;;;;;9.50;4.70;;;;;;;;;;5039467;28;20110;-64
2023/01/24 10:54:46;;;;;;;9.05;4.82;;;;;;;;;;5044590;28;20042;-68
2023/01/24 10:57:19;;;;;;;9.23;4.65;;;;;;;;;;5048479;28;20583;-67
2023/01/24 10:59:46;;;;;;;;;;;;;;;;;;5049369;28;20036;-70
2023/01/24 11:02:23;;;;;;;11.88;5.30;;;;;;;;;;5063997;28;19947;-70
2023/01/24 11:04:59;;;;;;;11.20;4.35;;;;;;;;;;5053666;28;20052;-69
2023/01/24 11:07:31;;;;;;;11.65;5.78;;;;;;;;;;5059491;28;20047;-70
2023/01/24 11:10:04;;;;;;;11.57;5.50;;;;;;;;;;5063011;28;20021;-69
2023/01/24 11:15:14;;;;;;;14.43;5.20;;;;;;;;;;5068694;28;20078;-71
2023/01/24 11:17:41;;;;;;;13.38;6.50;;;;;;;;;;5038199;28;20078;-65
2023/01/24 11:20:42;;;;;;;12.00;5.90;;;;;;;;;;5039889;28;20043;-67
2023/01/24 11:23:13;;;;;;;8.77;4.68;;;;;;;;;;5046505;28;20044;-67
2023/01/24 11:25:52;;;;;;;7.95;4.15;;;;;;;;;;5046936;28;20083;-64
2023/01/24 11:28:31;;;;;;;7.95;3.97;;;;;;;;;;5056368;28;20047;-66
2023/01/24 11:31:02;;;;;;;10.82;5.13;;;;;;;;;;5045581;28;20040;-69
2023/01/24 11:33:34;;;;;;;8.02;4.47;;;;;;;;;;5047944;28;20139;-64
2023/01/24 11:36:19;;;;;;;7.82;3.80;;;;;;;;;;5057828;28;20016;-64
2023/01/24 11:38:45;;;;;;;8.98;4.20;;;;;;;;;;5029513;28;20039;-71
2023/01/24 11:41:11;;;;;;;9.68;4.47;;;;;;;;;;5047338;28;20029;-67
2023/01/24 11:43:37;;;;;;;8.93;4.75;;;;;;;;;;5046848;28;20032;-69
2023/01/24 11:46:06;;;;;;;7.90;3.85;;;;;;;;;;5047572;28;20570;-65
2023/01/24 11:48:50;;;;;;;10.43;4.97;;;;;;;;;;5048524;28;20780;-65
2023/01/24 11:51:23;;;;;;;11.00;5.35;;;;;;;;;;5047606;28;20064;-65
2023/01/24 11:53:49;;;;;;;9.35;5.18;;;;;;;;;;5047523;28;20029;-65
2023/01/24 11:56:20;;;;;;;11.38;5.47;;;;;;;;;;5047087;28;20100;-69
2023/01/24 11:58:58;;;;;;;10.35;5.05;;;;;;;;;;5027357;28;20030;-65
2023/01/24 12:01:34;;;;;;;11.82;6.70;;;;;;;;;;5012594;28;20112;-68
2023/01/24 12:04:18;;;;;;;13.27;5.63;;;;;;;;;;5019324;28;20102;-66
2023/01/24 12:07:04;;;;;;;9.35;5.00;;;;;;;;;;5019997;28;20080;-64
2023/01/24 12:09:34;;;;;;;11.35;5.28;;;;;;;;;;5020692;28;20041;-64
2023/01/24 12:12:19;;;;;;;7.05;3.97;;;;;;;;;;5012782;28;20445;-65
2023/01/24 12:14:58;;;;;;;8.10;3.88;;;;;;;;;;5017681;28;20028;-66
2023/01/24 12:17:38;;;;;;;8.15;4.15;;;;;;;;;;5047894;28;20006;-66
2023/01/24 12:20:28;;;;;;;8.48;4.57;;;;;;;;;;5046266;28;20026;-70
2023/01/24 12:22:56;;;;;;;8.13;4.40;;;;;;;;;;5031811;28;20037;-65
2023/01/24 12:25:26;;;;;;;10.15;4.68;;;;;;;;;;5024927;28;20052;-66
2023/01/24 12:27:55;;;;;;;8.98;4.50;;;;;;;;;;5016851;28;20025;-68
2023/01/24 12:30:28;;;;;;;7.68;4.38;;;;;;;;;;5030224;28;20105;-70
2023/01/24 12:32:58;;;;;;;8.70;4.03;;;;;;;;;;5023684;28;20026;-70
2023/01/24 12:35:27;;;;;;;12.57;5.55;;;;;;;;;;5010663;28;20022;-65
2023/01/24 12:38:02;;;;;;;11.00;5.07;;;;;;;;;;5011761;28;20038;-71
2023/01/24 12:40:37;;;;;;;13.23;5.97;;;;;;;;;;5014281;28;20026;-64
2023/01/24 12:43:22;;;;;;;14.85;6.85;;;;;;;;;;5014510;28;20113;-71
2023/01/24 12:45:53;;;;;;;13.80;6.20;;;;;;;;;;5014443;28;20072;-71
2023/01/24 12:48:26;;;;;;;10.98;5.38;;;;;;;;;;5014391;28;20432;-71
2023/01/24 12:51:13;;;;;;;10.55;5.18;;;;;;;;;;5038382;28;20044;-72
2023/01/24 12:53:41;;;;;;;8.35;4.20;;;;;;;;;;5045253;28;20061;-71
2023/01/24 12:56:15;;;;;;;11.88;5.80;;;;;;;;;;5037273;28;20025;-70
2023/01/24 12:58:43;;;;;;;8.68;5.10;;;;;;;;;;5033685;28;20037;-67
2023/01/24 13:01:26;;;;;;;9.50;5.13;;;;;;;;;;5033703;28;20029;-65
2023/01/24 13:04:10;;;;;;;11.52;5.68;;;;;;;;;;5033048;28;20025;-65
2023/01/24 13:06:36;;;;;;;11.30;4.82;;;;;;;;;;5033592;28;20029;-66
2023/01/24 13:09:14;;;;;;;9.07;4.88;;;;;;;;;;5033686;28;20457;-64
2023/01/24 13:11:45;;;;;;;13.15;6.50;;;;;;;;;;5033670;28;20037;-65
2023/01/24 13:14:20;;;;;;;11.68;5.53;;;;;;;;;;5033650;28;20022;-65
2023/01/24 13:16:46;;;;;;;9.57;5.07;;;;;;;;;;5033641;28;20041;-65
2023/01/24 13:19:12;;;;;;;9.80;4.40;;;;;;;;;;5033524;28;20439;-65
2023/01/24 13:21:46;;;;;;;12.38;5.53;;;;;;;;;;5033607;28;20061;-65
2023/01/24 13:24:28;;;;;;;12.73;6.20;;;;;;;;;;5033603;28;20087;-65
2023/01/24 13:27:05;;;;;;;11.65;5.25;;;;;;;;;;5033272;28;20033;-65
2023/01/24 13:29:50;;;;;;;10.30;4.63;;;;;;;;;;5033108;28;20037;-65
2023/01/24 13:32:18;;;;;;;9.10;4.15;;;;;;;;;;5031911;28;20037;-69
2023/01/24 13:34:49;;;;;;;9.60;5.25;;;;;;;;;;5033184;28;20025;-66
2023/01/24 13:37:16;;;;;;;13.98;5.45;;;;;;;;;;5033262;28;20029;-70
2023/01/24 13:39:42;;;;;;;9.70;5.18;;;;;;;;;;5032913;28;20017;-66
2023/01/24 13:42:18;;;;;;;10.25;5.72;;;;;;;;;;5033338;28;20393;-66
2023/01/24 13:44:44;;;;;;;13.07;6.32;;;;;;;;;;5033079;28;20025;-65
2023/01/24 13:47:13;;;;;;;13.85;6.18;;;;;;;;;;5033073;28;20025;-65
2023/01/24 13:49:40;;;;;;;11.15;5.63;;;;;;;;;;5031990;28;20022;-64
2023/01/24 13:52:35;;;;;;;11.35;5.95;;;;;;;;;;5032352;28;20147;-64
2023/01/24 13:55:04;;;;;;;14.18;6.50;;;;;;;;;;5030194;28;20041;-63
2023/01/24 13:57:32;;;;;;;12.32;5.63;;;;;;;;;;5047911;28;20057;-64
2023/01/24 14:00:15;;;;;;;12.90;5.97;;;;;;;;;;5049901;28;20044;-70
2023/01/24 14:02:41;;;;;;;16.55;7.93;;;;;;;;;;5049679;28;20037;-66
2023/01/24 14:05:26;;;;;;;16.20;7.70;;;;;;;;;;5050107;28;20124;-72
2023/01/24 14:07:52;;;;;;;17.20;7.30;;;;;;;;;;5049871;28;20036;-73
2023/01/24 14:10:18;;;;;;;13.25;6.30;;;;;;;;;;5049753;28;20094;-73
2023/01/24 14:12:53;;;;;;;13.90;5.75;;;;;;;;;;5049968;28;20498;-69
2023/01/24 14:15:32;;;;;;;12.75;5.95;;;;;;;;;;5049662;28;20036;-73
2023/01/24 14:17:58;;;;;;;11.85;5.35;;;;;;;;;;5049931;28;20044;-65
2023/01/24 14:20:24;;;;;;;13.82;5.97;;;;;;;;;;5049398;28;20021;-64
2023/01/24 14:22:53;;;;;;;12.98;6.10;;;;;;;;;;5049881;28;20028;-64
2023/01/24 14:25:28;;;;;;;8.23;4.50;;;;;;;;;;5049267;28;20119;-64
2023/01/24 14:27:57;;;;;;;10.55;4.85;;;;;;;;;;5050053;28;20104;-74
2023/01/24 14:30:35;;;;;;;10.23;5.03;;;;;;;;;;5049509;28;20103;-64
2023/01/24 14:33:12;;;;;;;10.77;5.60;;;;;;;;;;5051658;28;20484;-65
2023/01/24 14:35:51;;;;;;;11.52;5.68;;;;;;;;;;5052000;28;20112;-69
2023/01/24 14:38:18;;;;;;;12.65;6.10;;;;;;;;;;5051924;28;20033;-69
2023/01/24 14:40:52;;;;;;;14.15;6.93;;;;;;;;;;5051858;28;20432;-79
2023/01/24 14:43:19;;;;;;;14.80;6.65;;;;;;;;;;5051788;28;20029;-64
2023/01/24 14:45:46;;;;;;;12.63;7.15;;;;;;;;;;5052018;28;20090;-65
2023/01/24 14:48:23;;;;;;;14.38;6.53;;;;;;;;;;5051754;28;20029;-64
2023/01/24 14:50:57;;;;;;;12.68;6.50;;;;;;;;;;5051257;28;20040;-63
2023/01/24 14:53:27;;;;;;;13.77;6.85;;;;;;;;;;5051784;28;20058;-63
2023/01/24 14:55:54;;;;;;;15.48;6.97;;;;;;;;;;5051169;28;20021;-64
2023/01/24 14:58:24;;;;;;;13.52;7.13;;;;;;;;;;5050926;28;20052;-63
2023/01/24 15:00:51;;;;;;;15.93;7.45;;;;;;;;;;5050657;28;20067;-64
2023/01/24 15:03:19;;;;;;;13.88;6.35;;;;;;;;;;5051284;28;20031;-69
2023/01/24 15:05:54;;;;;;;16.83;7.50;;;;;;;;;;5051283;28;20079;-71
2023/01/24 15:08:20;;;;;;;14.95;6.78;;;;;;;;;;5051284;28;20029;-64
2023/01/24 15:10:52;;;;;;;14.65;7.35;;;;;;;;;;5051057;28;20033;-77
2023/01/24 15:13:20;;;;;;;17.27;7.53;;;;;;;;;;5051117;28;20021;-65
2023/01/24 15:15:46;;;;;;;15.30;7.57;;;;;;;;;;5051384;28;20726;-64
2023/01/24 15:18:31;;;;;;;15.40;6.93;;;;;;;;;;5050805;28;20115;-64
2023/01/24 15:20:57;;;;;;;14.35;7.40;;;;;;;;;;5051144;28;20037;-71
2023/01/24 15:23:27;;;;;;;16.60;7.47;;;;;;;;;;5049691;28;20039;-64
2023/01/24 15:25:53;;;;;;;15.38;7.85;;;;;;;;;;5050832;28;20029;-64
2023/01/24 15:28:19;;;;;;;17.30;7.50;;;;;;;;;;5051137;28;20114;-66
2023/01/24 15:30:54;;;;;;;15.02;7.40;;;;;;;;;;5050735;28;20017;-64
2023/01/24 15:33:21;;;;;;;16.58;7.82;;;;;;;;;;5050896;28;20128;-65
2023/01/24 15:35:50;;;;;;;18.58;7.38;;;;;;;;;;5050994;28;20025;-69
2023/01/24 15:38:16;;;;;;;21.70;8.68;;;;;;;;;;5050425;28;20491;-68
2023/01/24 15:40:58;;;;;;;16.70;8.20;;;;;;;;;;5043611;28;20028;-69
2023/01/24 15:49:39;;;;;;;23.73;10.88;;;;;;;;;;5087804;28;20101;-72
2023/01/24 15:52:21;;;;;;;23.85;10.77;;;;;;;;;;5085861;28;20059;-64
2023/01/24 15:54:55;;;;;;;18.98;7.85;;;;;;;;;;5086348;28;20090;-63
2023/01/24 15:57:26;;;;;;;26.33;9.93;;;;;;;;;;5088836;28;20046;-63
2023/01/24 15:59:58;;;;;;;20.52;9.13;;;;;;;;;;5088459;28;20139;-70
2023/01/24 16:02:24;;;;;;;;;;;;;;;;;;5088997;28;20031;-66
2023/01/24 16:04:50;;;;;;;19.23;9.43;;;;;;;;;;5088467;28;19904;-64
2023/01/24 16:07:19;;;;;;;22.13;11.15;;;;;;;;;;5088399;28;20119;-71
2023/01/24 16:09:48;;;;;;;23.05;9.77;;;;;;;;;;5088655;28;20131;-64
2023/01/24 16:12:15;;;;;;;24.00;11.65;;;;;;;;;;5088536;28;20067;-68
2023/01/24 16:14:44;;;;;;;22.17;10.27;;;;;;;;;;5092692;28;20028;-65
2023/01/24 16:17:10;;;;;;;24.55;11.90;;;;;;;;;;5092403;28;20387;-72
2023/01/24 16:19:36;;;;;;;33.25;13.48;;;;;;;;;;5092165;28;20039;-66
2023/01/24 16:22:02;;;;;;;22.38;11.60;;;;;;;;;;5091825;28;20075;-67
2023/01/24 16:24:28;;;;;;;23.38;12.43;;;;;;;;;;5091931;28;20145;-72
2023/01/24 16:26:55;;;;;;;26.15;12.75;;;;;;;;;;5041449;28;20418;-73
2023/01/24 16:29:26;;;;;;;22.55;11.98;;;;;;;;;;5034335;28;20026;-65
2023/01/24 16:31:52;;;;;;;29.65;13.68;;;;;;;;;;5033625;28;20477;-65
2023/01/24 16:34:18;;;;;;;26.42;12.30;;;;;;;;;;5034249;28;20469;-72
2023/01/24 16:36:45;;;;;;;22.92;10.90;;;;;;;;;;5034130;28;20033;-64
2023/01/24 16:39:18;;;;;;;19.27;11.02;;;;;;;;;;5034161;28;20416;-73
2023/01/24 16:41:45;;;;;;;20.17;11.27;;;;;;;;;;5032827;28;20432;-65
2023/01/24 16:44:12;;;;;;;23.55;10.18;;;;;;;;;;5033966;28;20021;-65
2023/01/24 16:46:38;;;;;;;20.10;10.65;;;;;;;;;;5034070;28;20022;-64
2023/01/24 16:49:04;;;;;;;26.63;12.20;;;;;;;;;;5033987;28;20037;-72
2023/01/24 16:51:31;;;;;;;24.48;12.75;;;;;;;;;;5033374;28;20111;-64
2023/01/24 16:53:57;;;;;;;23.50;11.13;;;;;;;;;;5033606;28;20097;-63
2023/01/24 16:56:23;;;;;;;24.77;12.55;;;;;;;;;;5033989;28;20025;-66
2023/01/24 16:58:53;;;;;;;22.52;12.43;;;;;;;;;;5033736;28;20052;-65
2023/01/24 17:01:19;;;;;;;28.88;12.48;;;;;;;;;;5041077;28;20037;-67
2023/01/24 17:03:45;;;;;;;26.85;12.85;;;;;;;;;;5043034;28;20027;-73
2023/01/24 17:06:14;;;;;;;25.73;11.77;;;;;;;;;;5042968;28;20025;-64
2023/01/24 17:08:40;;;;;;;24.58;11.88;;;;;;;;;;5041416;28;20141;-72
2023/01/24 17:11:06;;;;;;;21.90;11.40;;;;;;;;;;5043473;28;20544;-71
2023/01/24 17:13:33;;;;;;;26.63;12.93;;;;;;;;;;5038239;28;20511;-66
2023/01/24 17:16:09;;;;;;;29.85;12.98;;;;;;;;;;5047273;28;20021;-76
2023/01/24 17:18:36;;;;;;;24.33;12.07;;;;;;;;;;5053550;28;20484;-64
2023/01/24 17:21:03;;;;;;;24.95;12.70;;;;;;;;;;5043081;28;20061;-67
2023/01/24 17:23:30;;;;;;;27.30;13.73;;;;;;;;;;5045612;28;20079;-67
2023/01/24 17:26:02;;;;;;;26.42;13.45;;;;;;;;;;5042327;28;20745;-74
2023/01/24 17:28:28;;;;;;;27.48;12.85;;;;;;;;;;5045836;28;20033;-65
2023/01/24 17:30:54;;;;;;;24.73;12.75;;;;;;;;;;5033041;28;20380;-70
2023/01/24 17:33:20;;;;;;;25.52;12.20;;;;;;;;;;5040831;28;20481;-71
2023/01/24 17:35:46;;;;;;;28.30;13.55;;;;;;;;;;5043392;28;20033;-65
2023/01/24 17:38:12;;;;;;;27.83;14.05;;;;;;;;;;5040814;28;22001;-64
2023/01/24 17:40:38;;;;;;;27.85;13.10;;;;;;;;;;5033145;28;20108;-75
2023/01/24 17:43:04;;;;;;;32.42;14.77;;;;;;;;;;5032817;28;20025;-64
2023/01/24 17:45:31;;;;;;;30.10;14.05;;;;;;;;;;5033020;28;20030;-65
2023/01/24 17:47:57;;;;;;;33.53;14.63;;;;;;;;;;5033025;28;20021;-67
2023/01/24 17:50:23;;;;;;;27.27;13.20;;;;;;;;;;5032763;28;20079;-65
2023/01/24 17:52:49;;;;;;;26.77;12.88;;;;;;;;;;5032170;28;20132;-76
2023/01/24 17:55:18;;;;;;;28.58;13.00;;;;;;;;;;5033006;28;20029;-65
2023/01/24 17:57:44;;;;;;;34.45;15.82;;;;;;;;;;5033073;28;20026;-76
2023/01/24 18:00:10;;;;;;;29.77;14.95;;;;;;;;;;5032777;28;20037;-65
2023/01/24 18:02:36;;;;;;;30.88;14.57;;;;;;;;;;5032649;28;20033;-65
2023/01/24 18:05:03;;;;;;;37.05;16.45;;;;;;;;;;5032599;28;20029;-65
2023/01/24 18:07:29;;;;;;;27.90;13.35;;;;;;;;;;5032949;28;20026;-66
2023/01/24 18:09:55;;;;;;;32.33;14.13;;;;;;;;;;5032485;28;20036;-76
2023/01/24 18:12:21;;;;;;;33.03;15.05;;;;;;;;;;5041196;28;20073;-67
2023/01/24 18:14:47;;;;;;;30.13;15.15;;;;;;;;;;5035361;28;20438;-75
2023/01/24 18:17:13;;;;;;;34.78;15.70;;;;;;;;;;5032542;28;20072;-66
2023/01/24 18:19:39;;;;;;;33.05;15.30;;;;;;;;;;5034595;28;20030;-65
2023/01/24 18:22:05;;;;;;;31.48;14.38;;;;;;;;;;5040255;28;20029;-64
2023/01/24 18:24:31;;;;;;;32.28;15.75;;;;;;;;;;5040435;28;20035;-65
2023/01/24 18:26:57;;;;;;;34.28;15.73;;;;;;;;;;5042021;28;20040;-64
2023/01/24 18:29:23;;;;;;;34.83;15.88;;;;;;;;;;5040037;28;20041;-71
2023/01/24 18:31:51;;;;;;;33.30;14.90;;;;;;;;;;5040168;28;20016;-75
2023/01/24 18:34:17;;;;;;;34.92;15.32;;;;;;;;;;5044809;28;20027;-65
2023/01/24 18:36:43;;;;;;;34.38;15.57;;;;;;;;;;5033956;28;20025;-67
2023/01/24 18:39:09;;;;;;;37.20;15.80;;;;;;;;;;5037961;28;20020;-63
2023/01/24 18:41:37;;;;;;;30.85;14.88;;;;;;;;;;5046752;28;20027;-64
2023/01/24 18:44:03;;;;;;;26.20;12.75;;;;;;;;;;5051946;28;20455;-65
2023/01/24 18:46:29;;;;;;;31.55;15.13;;;;;;;;;;5052094;28;20025;-64
2023/01/24 18:48:56;;;;;;;33.15;15.88;;;;;;;;;;5052056;28;20496;-64
2023/01/24 18:51:22;;;;;;;30.13;15.13;;;;;;;;;;5051329;28;20500;-64
2023/01/24 18:53:51;;;;;;;28.65;13.23;;;;;;;;;;5050227;28;20021;-64
2023/01/24 18:56:17;;;;;;;27.83;13.52;;;;;;;;;;5041066;28;20021;-64
2023/01/24 18:58:44;;;;;;;29.17;14.57;;;;;;;;;;5039274;28;20025;-69
2023/01/24 19:01:16;;;;;;;29.42;15.00;;;;;;;;;;5040930;28;20214;-73
2023/01/24 19:03:42;;;;;;;33.97;16.20;;;;;;;;;;5041567;28;20074;-70
2023/01/24 19:06:09;;;;;;;29.60;14.02;;;;;;;;;;5039541;28;20093;-64
2023/01/24 19:08:35;;;;;;;29.83;14.75;;;;;;;;;;5040064;28;20048;-72
2023/01/24 19:11:07;;;;;;;31.38;13.65;;;;;;;;;;5036166;28;20025;-64
2023/01/24 19:13:34;;;;;;;31.50;14.93;;;;;;;;;;5031299;28;20025;-73
2023/01/24 19:16:01;;;;;;;31.15;14.82;;;;;;;;;;5038416;28;20048;-65
2023/01/24 19:18:27;;;;;;;31.20;15.80;;;;;;;;;;5042284;28;20044;-68
2023/01/24 19:20:53;;;;;;;29.77;14.40;;;;;;;;;;5049308;28;20029;-68
2023/01/24 19:23:20;;;;;;;35.72;15.85;;;;;;;;;;5050662;28;20503;-69
2023/01/24 19:25:46;;;;;;;36.95;17.23;;;;;;;;;;5049998;28;20033;-70
2023/01/24 19:28:12;;;;;;;35.30;14.88;;;;;;;;;;5048632;28;20029;-70
2023/01/24 19:30:38;;;;;;;31.05;14.57;;;;;;;;;;5050824;28;20021;-70
2023/01/24 19:33:04;;;;;;;30.33;14.70;;;;;;;;;;5050144;28;20400;-73
2023/01/24 19:35:30;;;;;;;29.50;14.98;;;;;;;;;;5050216;28;20052;-68
2023/01/24 19:37:56;;;;;;;34.72;16.52;;;;;;;;;;5050029;28;20024;-68
2023/01/24 19:40:22;;;;;;;30.33;14.90;;;;;;;;;;5050574;28;20025;-72
2023/01/24 19:42:48;;;;;;;27.70;14.25;;;;;;;;;;5050905;28;20033;-68
2023/01/24 19:45:16;;;;;;;26.63;14.05;;;;;;;;;;5050635;28;20460;-70
2023/01/24 19:47:42;;;;;;;29.60;13.73;;;;;;;;;;5048655;28;20108;-66
2023/01/24 19:50:09;;;;;;;30.63;13.88;;;;;;;;;;5037165;28;20021;-68
2023/01/24 19:52:36;;;;;;;27.75;14.13;;;;;;;;;;5047283;28;20091;-66
2023/01/24 19:55:02;;;;;;;30.95;15.07;;;;;;;;;;5040868;28;20785;-66
2023/01/24 19:57:28;;;;;;;34.05;15.43;;;;;;;;;;5043055;28;20037;-68
2023/01/24 19:59:54;;;;;;;34.00;16.10;;;;;;;;;;5038828;28;20032;-70
2023/01/24 20:02:20;;;;;;;35.38;15.82;;;;;;;;;;5039560;28;20389;-70
2023/01/24 20:04:46;;;;;;;35.30;17.15;;;;;;;;;;5040664;28;20068;-71
2023/01/24 20:07:12;;;;;;;29.38;14.30;;;;;;;;;;5049535;28;20036;-69
2023/01/24 20:09:38;;;;;;;33.05;15.93;;;;;;;;;;5049745;28;20074;-69
2023/01/24 20:12:04;;;;;;;30.73;14.70;;;;;;;;;;5048272;28;20132;-67
2023/01/24 20:14:30;;;;;;;33.28;15.70;;;;;;;;;;5049880;28;20033;-74
2023/01/24 20:16:56;;;;;;;31.85;14.98;;;;;;;;;;5049852;28;20056;-74
2023/01/24 20:19:22;;;;;;;32.78;14.32;;;;;;;;;;5049778;28;20044;-66
2023/01/24 20:21:48;;;;;;;31.52;14.57;;;;;;;;;;5049627;28;20523;-67
2023/01/24 20:24:14;;;;;;;28.77;14.63;;;;;;;;;;5049709;28;20106;-67
2023/01/24 20:26:42;;;;;;;33.00;15.30;;;;;;;;;;5048324;28;20615;-68
2023/01/24 20:29:10;;;;;;;32.10;15.20;;;;;;;;;;5048411;28;20026;-71
2023/01/24 20:31:36;;;;;;;29.95;13.60;;;;;;;;;;5032036;28;20485;-71
2023/01/24 20:34:02;;;;;;;32.55;14.63;;;;;;;;;;5037517;28;20380;-65
2023/01/24 20:36:29;;;;;;;33.08;14.63;;;;;;;;;;5049734;28;20037;-68
2023/01/24 20:38:55;;;;;;;30.48;15.30;;;;;;;;;;5049290;28;20500;-74
2023/01/24 20:41:22;;;;;;;26.88;12.13;;;;;;;;;;5048483;28;20508;-74
2023/01/24 20:43:51;;;;;;;30.23;13.50;;;;;;;;;;5049613;28;20435;-78
2023/01/24 20:46:22;;;;;;;31.25;14.13;;;;;;;;;;5049592;28;20025;-69
2023/01/24 20:49:05;;;;;;;27.88;13.23;;;;;;;;;;5049501;28;20036;-79
2023/01/24 20:51:31;;;;;;;28.55;13.70;;;;;;;;;;5047185;28;20583;-68
2023/01/24 20:53:59;;;;;;;26.10;12.30;;;;;;;;;;5049497;28;20528;-82
2023/01/24 20:56:25;;;;;;;29.98;13.45;;;;;;;;;;5047823;28;20119;-74
2023/01/24 20:58:58;;;;;;;28.27;12.43;;;;;;;;;;5050748;28;20024;-74
2023/01/24 21:01:25;;;;;;;27.00;12.70;;;;;;;;;;5053139;28;20033;-65
2023/01/24 21:03:52;;;;;;;25.90;11.45;;;;;;;;;;5052919;28;20080;-71
2023/01/24 21:06:23;;;;;;;26.02;12.20;;;;;;;;;;5053327;28;20114;-65
2023/01/24 21:08:51;;;;;;;29.30;13.30;;;;;;;;;;5052360;28;20032;-73
2023/01/24 21:11:18;;;;;;;24.60;11.85;;;;;;;;;;5051736;28;20056;-64
2023/01/24 21:13:45;;;;;;;26.23;12.13;;;;;;;;;;5053137;28;20028;-64
2023/01/24 21:16:12;;;;;;;25.35;12.38;;;;;;;;;;5052757;28;20025;-68
2023/01/24 21:18:38;;;;;;;27.48;11.90;;;;;;;;;;5051027;28;20409;-63
2023/01/24 21:21:04;;;;;;;24.95;11.48;;;;;;;;;;5052156;28;20130;-65
2023/01/24 21:23:31;;;;;;;29.92;12.45;;;;;;;;;;5052555;28;20381;-64
2023/01/24 21:25:57;;;;;;;28.50;12.52;;;;;;;;;;5052615;28;20507;-66
2023/01/24 21:28:24;;;;;;;31.40;13.32;;;;;;;;;;5052655;28;20032;-69
2023/01/24 21:31:00;;;;;;;29.10;13.20;;;;;;;;;;5052159;28;20021;-66
2023/01/24 21:33:26;;;;;;;25.20;11.98;;;;;;;;;;5052434;28;20044;-71
2023/01/24 21:35:59;;;;;;;30.25;12.43;;;;;;;;;;5052305;28;20024;-68
2023/01/24 21:38:25;;;;;;;29.40;13.32;;;;;;;;;;5052244;28;20025;-66
2023/01/24 21:43:36;;;;;;;30.75;13.30;;;;;;;;;;5052034;28;20043;-63
2023/01/24 21:46:03;;;;;;;27.95;12.48;;;;;;;;;;5052539;28;20476;-63
2023/01/24 21:51:17;;;;;;;28.67;12.23;;;;;;;;;;5040649;28;20069;-64
2023/01/24 21:54:01;;;;;;;26.60;12.98;;;;;;;;;;5039895;28;20496;-69
2023/01/24 21:59:14;;;;;;;26.05;12.82;;;;;;;;;;5041015;28;20511;-67
2023/01/24 22:01:40;;;;;;;29.02;12.80;;;;;;;;;;5039068;28;20054;-64
2023/01/24 22:04:06;;;;;;;33.60;14.30;;;;;;;;;;5051698;28;20060;-65
2023/01/24 22:06:32;;;;;;;28.48;13.15;;;;;;;;;;5048148;28;20037;-74
2023/01/24 22:08:58;;;;;;;26.27;12.27;;;;;;;;;;5052149;28;20029;-70
2023/01/24 22:11:24;;;;;;;29.10;13.20;;;;;;;;;;5051858;28;20115;-66
2023/01/24 22:14:09;;;;;;;28.65;13.10;;;;;;;;;;5050681;28;20071;-69
2023/01/24 22:16:57;;;;;;;24.27;11.95;;;;;;;;;;5052209;28;20049;-72
2023/01/24 22:19:24;;;;;;;25.98;12.23;;;;;;;;;;5052373;28;20032;-64
2023/01/24 22:22:06;;;;;;;27.10;13.07;;;;;;;;;;5051968;28;20037;-65
2023/01/24 22:24:35;;;;;;;27.92;13.13;;;;;;;;;;5051883;28;20092;-66
2023/01/24 22:27:03;;;;;;;28.52;12.60;;;;;;;;;;5052288;28;20032;-67
2023/01/24 22:29:30;;;;;;;26.23;12.68;;;;;;;;;;5052083;28;20029;-68
2023/01/24 22:31:57;;;;;;;26.60;13.00;;;;;;;;;;5048620;28;20035;-74
2023/01/24 22:34:23;;;;;;;27.55;12.55;;;;;;;;;;5040680;28;20075;-67
2023/01/24 22:37:05;;;;;;;27.77;13.15;;;;;;;;;;5038877;28;20021;-66
2023/01/24 22:39:31;;;;;;;30.45;12.75;;;;;;;;;;5050263;28;20029;-71
2023/01/24 22:41:57;;;;;;;26.13;12.25;;;;;;;;;;5051222;28;20029;-66
2023/01/24 22:44:23;;;;;;;27.52;12.63;;;;;;;;;;5051781;28;20029;-70
2023/01/24 22:46:49;;;;;;;29.08;13.20;;;;;;;;;;5050046;28;20024;-67
2023/01/24 22:49:15;;;;;;;26.40;12.00;;;;;;;;;;5051652;28;20384;-77
2023/01/24 22:51:41;;;;;;;30.17;12.35;;;;;;;;;;5048099;28;20160;-71